createdAt,value
2019-04-30T00:00:34.840Z,95727.31
2019-04-30T00:01:42.427Z,95722.98
2019-04-30T00:02:47.574Z,95727.53
2019-04-30T00:03:59.242Z,95723.89
2019-04-30T00:05:00.820Z,95721.33
2019-04-30T00:06:07.273Z,95719.67
2019-04-30T00:07:10.187Z,95699.20
2019-04-30T00:08:16.042Z,95714.33
2019-04-30T00:09:21.279Z,95714.47
2019-04-30T00:10:29.066Z,95711.72
2019-04-30T00:11:30.681Z,95714.25
2019-04-30T00:12:35.917Z,95701.87
2019-04-30T00:13:39.277Z,95698.66
2019-04-30T00:14:42.713Z,95695.83
2019-04-30T00:15:48.023Z,95693.79
2019-04-30T00:16:51.407Z,95689.52
2019-04-30T00:18:00.313Z,95692.21
2019-04-30T00:19:01.043Z,95693.92
2019-04-30T00:20:06.039Z,95692.13
2019-04-30T00:21:09.971Z,95694.73
2019-04-30T00:22:15.765Z,95689.25
2019-04-30T00:23:22.711Z,95689.46
2019-04-30T00:24:25.977Z,95691.50
2019-04-30T00:25:29.619Z,95692.34
2019-04-30T00:26:35.291Z,95694.47
2019-04-30T00:27:38.235Z,95691.85
2019-04-30T00:28:46.263Z,95692.75
2019-04-30T00:29:46.916Z,95686.00
2019-04-30T00:30:50.342Z,95686.50
2019-04-30T00:31:57.701Z,95686.85
2019-04-30T00:32:59.111Z,95687.58
2019-04-30T00:34:02.643Z,95690.55
2019-04-30T00:35:07.273Z,95689.52
2019-04-30T00:36:12.220Z,95688.62
2019-04-30T00:37:18.816Z,95683.66
2019-04-30T00:38:21.337Z,95674.11
2019-04-30T00:39:27.096Z,95673.16
2019-04-30T00:40:30.317Z,95663.75
2019-04-30T00:41:35.367Z,95666.58
2019-04-30T00:42:38.845Z,95662.72
2019-04-30T00:43:48.037Z,95673.16
2019-04-30T00:44:47.461Z,95666.31
2019-04-30T00:45:50.981Z,95668.78
2019-04-30T00:46:55.908Z,95678.87
2019-04-30T00:47:59.489Z,95675.86
2019-04-30T00:49:09.347Z,95674.20
2019-04-30T00:50:09.293Z,95674.83
2019-04-30T00:51:17.870Z,95682.36
2019-04-30T00:52:18.565Z,95679.42
2019-04-30T00:53:22.003Z,95675.77
2019-04-30T00:54:27.919Z,95678.85
2019-04-30T00:55:30.702Z,95677.36
2019-04-30T00:56:35.526Z,95680.92
2019-04-30T00:57:43.565Z,95678.85
2019-04-30T00:58:45.234Z,95680.23
2019-04-30T00:59:48.716Z,95680.10
2019-04-30T01:01:10.078Z,95677.27
2019-04-30T01:02:28.720Z,95675.28
2019-04-30T01:03:31.276Z,95671.99
2019-04-30T01:04:36.447Z,95672.27
2019-04-30T01:05:46.483Z,95670.42
2019-04-30T01:06:46.181Z,95675.29
2019-04-30T01:07:51.804Z,95666.77
2019-04-30T01:08:58.273Z,95661.95
2019-04-30T01:10:00.196Z,95659.20
2019-04-30T01:11:09.354Z,95653.84
2019-04-30T01:12:09.402Z,95653.08
2019-04-30T01:13:12.836Z,95643.27
2019-04-30T01:14:16.296Z,95640.91
2019-04-30T01:15:19.818Z,95641.73
2019-04-30T01:16:23.590Z,95644.66
2019-04-30T01:17:29.970Z,95637.91
2019-04-30T01:18:33.581Z,95636.65
2019-04-30T01:19:37.176Z,95640.25
2019-04-30T01:20:40.976Z,95633.86
2019-04-30T01:21:46.932Z,95639.08
2019-04-30T01:22:49.715Z,95637.01
2019-04-30T01:23:54.871Z,95629.12
2019-04-30T01:25:01.290Z,95635.24
2019-04-30T01:26:03.952Z,95626.15
2019-04-30T01:27:10.494Z,95634.89
2019-04-30T01:28:16.478Z,95630.02
2019-04-30T01:29:19.226Z,95635.08
2019-04-30T01:30:23.120Z,95623.95
2019-04-30T01:31:26.555Z,95625.25
2019-04-30T01:32:30.062Z,95624.08
2019-04-30T01:33:34.441Z,95621.02
2019-04-30T01:34:39.543Z,95627.67
2019-04-30T01:35:43.245Z,95624.57
2019-04-30T01:36:50.723Z,95619.27
2019-04-30T01:37:51.995Z,95622.45
2019-04-30T01:38:55.573Z,95614.94
2019-04-30T01:40:03.188Z,95614.89
2019-04-30T01:41:04.256Z,95614.89
2019-04-30T01:42:11.276Z,95608.91
2019-04-30T01:43:12.919Z,95613.23
2019-04-30T01:44:16.364Z,95608.09
2019-04-30T01:45:23.188Z,95612.55
2019-04-30T01:46:25.038Z,95610.39
2019-04-30T01:47:30.794Z,95605.02
2019-04-30T01:48:33.703Z,95608.54
2019-04-30T01:49:42.767Z,95609.53
2019-04-30T01:50:42.386Z,95609.31
2019-04-30T01:51:45.858Z,95610.35
2019-04-30T01:52:52.427Z,95614.89
2019-04-30T01:53:55.855Z,95605.75
2019-04-30T01:54:59.294Z,95600.94
2019-04-30T01:56:20.365Z,95608.09
2019-04-30T01:57:29.290Z,95604.16
2019-04-30T01:58:34.415Z,95603.27
2019-04-30T01:59:55.300Z,95608.09
2019-04-30T02:01:15.521Z,95605.88
2019-04-30T02:02:19.689Z,95610.20
2019-04-30T02:03:23.201Z,95610.80
2019-04-30T02:04:26.636Z,95606.59
2019-04-30T02:05:30.181Z,95611.47
2019-04-30T02:06:33.615Z,95615.95
2019-04-30T02:07:38.814Z,95610.92
2019-04-30T02:08:42.437Z,95608.52
2019-04-30T02:09:45.887Z,95607.36
2019-04-30T02:10:51.333Z,95611.16
2019-04-30T02:11:54.563Z,95613.37
2019-04-30T02:12:59.080Z,95610.56
2019-04-30T02:14:02.711Z,95611.78
2019-04-30T02:15:06.284Z,95608.49
2019-04-30T02:16:09.804Z,95612.31
2019-04-30T02:17:13.236Z,95609.97
2019-04-30T02:18:16.697Z,95613.22
2019-04-30T02:19:20.129Z,95610.11
2019-04-30T02:20:23.642Z,95609.48
2019-04-30T02:21:27.149Z,95613.50
2019-04-30T02:22:31.218Z,95611.37
2019-04-30T02:23:34.730Z,95610.11
2019-04-30T02:24:38.703Z,95607.28
2019-04-30T02:25:42.194Z,95607.73
2019-04-30T02:26:45.631Z,95616.11
2019-04-30T02:27:49.092Z,95611.24
2019-04-30T02:28:52.701Z,95605.16
2019-04-30T02:29:56.142Z,95607.50
2019-04-30T02:31:00.526Z,95604.20
2019-04-30T02:32:04.136Z,95603.84
2019-04-30T02:33:09.627Z,95603.63
2019-04-30T02:34:22.246Z,95602.63
2019-04-30T02:35:35.632Z,95599.48
2019-04-30T02:36:40.776Z,95604.85
2019-04-30T02:37:54.542Z,95603.95
2019-04-30T02:38:59.539Z,95610.27
2019-04-30T02:40:03.971Z,95607.73
2019-04-30T02:41:09.832Z,95605.75
2019-04-30T02:42:14.510Z,95603.05
2019-04-30T02:43:20.401Z,95600.70
2019-04-30T02:44:25.456Z,95599.45
2019-04-30T02:45:29.961Z,95599.12
2019-04-30T02:46:34.181Z,95597.14
2019-04-30T02:47:39.963Z,95593.41
2019-04-30T02:48:45.157Z,95595.74
2019-04-30T02:49:53.415Z,95593.89
2019-04-30T02:51:00.248Z,95592.28
2019-04-30T02:52:03.954Z,95594.94
2019-04-30T02:53:13.398Z,95595.48
2019-04-30T02:54:23.874Z,95601.25
2019-04-30T02:55:33.081Z,95590.13
2019-04-30T02:56:36.654Z,95592.34
2019-04-30T02:57:40.247Z,95591.44
2019-04-30T02:58:43.669Z,95583.67
2019-04-30T03:00:06.766Z,95583.01
2019-04-30T03:01:10.427Z,95581.97
2019-04-30T03:02:13.836Z,95579.54
2019-04-30T03:03:20.292Z,95585.41
2019-04-30T03:04:22.590Z,95585.00
2019-04-30T03:05:26.042Z,95583.69
2019-04-30T03:06:30.417Z,95584.86
2019-04-30T03:07:34.078Z,95589.58
2019-04-30T03:08:39.916Z,95586.69
2019-04-30T03:09:42.709Z,95594.72
2019-04-30T03:10:46.159Z,95592.91
2019-04-30T03:11:50.230Z,95593.01
2019-04-30T03:12:53.878Z,95596.52
2019-04-30T03:13:59.298Z,95590.94
2019-04-30T03:15:02.716Z,95591.97
2019-04-30T03:16:06.227Z,95597.20
2019-04-30T03:17:17.087Z,95592.95
2019-04-30T03:18:23.037Z,95590.20
2019-04-30T03:19:29.495Z,95593.91
2019-04-30T03:20:39.874Z,95588.33
2019-04-30T03:21:44.177Z,95586.07
2019-04-30T03:22:47.605Z,95583.67
2019-04-30T03:23:51.050Z,95591.16
2019-04-30T03:24:54.486Z,95588.69
2019-04-30T03:25:59.705Z,95590.39
2019-04-30T03:27:03.379Z,95588.69
2019-04-30T03:28:06.809Z,95590.80
2019-04-30T03:29:11.536Z,95587.09
2019-04-30T03:30:15.347Z,95584.98
2019-04-30T03:31:22.392Z,95581.47
2019-04-30T03:32:23.970Z,95592.81
2019-04-30T03:33:32.192Z,95587.92
2019-04-30T03:34:33.358Z,95587.92
2019-04-30T03:35:46.717Z,95587.37
2019-04-30T03:36:42.197Z,95591.06
2019-04-30T03:37:45.639Z,95591.42
2019-04-30T03:38:50.046Z,95585.30
2019-04-30T03:39:53.733Z,95597.00
2019-04-30T03:40:59.973Z,95592.25
2019-04-30T03:42:02.374Z,95594.72
2019-04-30T03:43:05.941Z,95597.67
2019-04-30T03:44:20.818Z,95595.11
2019-04-30T03:45:14.771Z,95598.13
2019-04-30T03:46:19.427Z,95600.11
2019-04-30T03:47:23.015Z,95606.47
2019-04-30T03:48:26.453Z,95597.33
2019-04-30T03:49:30.041Z,95599.45
2019-04-30T03:50:49.317Z,95598.98
2019-04-30T03:51:40.339Z,95600.61
2019-04-30T03:52:43.973Z,95602.63
2019-04-30T03:53:50.142Z,95598.63
2019-04-30T03:54:52.570Z,95598.36
2019-04-30T03:55:56.038Z,95600.97
2019-04-30T03:57:00.965Z,95602.77
2019-04-30T03:58:04.723Z,95604.89
2019-04-30T03:59:10.702Z,95599.26
2019-04-30T04:00:15.529Z,95600.56
2019-04-30T04:01:36.757Z,95606.88
2019-04-30T04:02:41.834Z,95604.48
2019-04-30T04:03:46.952Z,95606.69
2019-04-30T04:04:54.625Z,95609.07
2019-04-30T04:06:15.673Z,95606.01
2019-04-30T04:07:20.786Z,95606.91
2019-04-30T04:08:25.862Z,95603.63
2019-04-30T04:09:36.413Z,95600.38
2019-04-30T04:10:50.227Z,95597.63
2019-04-30T04:11:52.711Z,95593.30
2019-04-30T04:12:56.239Z,95588.17
2019-04-30T04:13:59.823Z,95595.80
2019-04-30T04:15:03.973Z,95598.55
2019-04-30T04:16:09.684Z,95598.76
2019-04-30T04:17:12.797Z,95593.89
2019-04-30T04:18:16.344Z,95595.53
2019-04-30T04:19:19.831Z,95607.50
2019-04-30T04:20:23.227Z,95607.23
2019-04-30T04:21:29.813Z,95603.33
2019-04-30T04:22:31.854Z,95605.66
2019-04-30T04:23:35.372Z,95599.12
2019-04-30T04:24:40.226Z,95603.67
2019-04-30T04:25:43.791Z,95605.71
2019-04-30T04:26:49.895Z,95605.47
2019-04-30T04:27:52.404Z,95604.98
2019-04-30T04:28:55.913Z,95605.16
2019-04-30T04:30:01.125Z,95604.08
2019-04-30T04:31:04.737Z,95599.39
2019-04-30T04:32:10.596Z,95600.08
2019-04-30T04:33:13.378Z,95607.78
2019-04-30T04:34:19.454Z,95600.52
2019-04-30T04:35:21.962Z,95598.09
2019-04-30T04:36:25.405Z,95602.15
2019-04-30T04:37:30.252Z,95607.45
2019-04-30T04:38:34.050Z,95607.19
2019-04-30T04:39:38.953Z,95607.78
2019-04-30T04:40:42.719Z,95603.45
2019-04-30T04:41:46.155Z,95600.92
2019-04-30T04:42:49.629Z,95604.84
2019-04-30T04:43:53.038Z,95603.53
2019-04-30T04:44:56.504Z,95598.23
2019-04-30T04:45:59.936Z,95599.94
2019-04-30T04:47:03.370Z,95606.14
2019-04-30T04:48:09.489Z,95597.06
2019-04-30T04:49:12.077Z,95603.05
2019-04-30T04:50:15.649Z,95603.45
2019-04-30T04:51:33.307Z,95598.63
2019-04-30T04:52:24.247Z,95603.27
2019-04-30T04:53:30.149Z,95605.38
2019-04-30T04:54:32.880Z,95600.58
2019-04-30T04:55:36.339Z,95614.12
2019-04-30T04:56:40.128Z,95608.63
2019-04-30T04:57:43.573Z,95609.63
2019-04-30T04:58:47.027Z,95614.86
2019-04-30T04:59:50.467Z,95611.70
2019-04-30T05:00:53.933Z,95608.50
2019-04-30T05:01:59.837Z,95607.65
2019-04-30T05:03:10.627Z,95602.23
2019-04-30T05:04:14.230Z,95607.73
2019-04-30T05:05:19.415Z,95606.43
2019-04-30T05:06:22.976Z,95606.34
2019-04-30T05:07:28.495Z,95608.77
2019-04-30T05:08:31.638Z,95606.83
2019-04-30T05:09:35.166Z,95612.67
2019-04-30T05:10:39.194Z,95610.39
2019-04-30T05:11:42.628Z,95608.99
2019-04-30T05:12:46.143Z,95609.75
2019-04-30T05:13:49.586Z,95611.16
2019-04-30T05:14:53.053Z,95607.59
2019-04-30T05:15:56.506Z,95605.30
2019-04-30T05:16:59.943Z,95598.95
2019-04-30T05:18:03.541Z,95599.54
2019-04-30T05:19:08.911Z,95592.60
2019-04-30T05:20:12.607Z,95598.73
2019-04-30T05:21:16.050Z,95592.28
2019-04-30T05:22:19.619Z,95590.36
2019-04-30T05:23:23.056Z,95598.32
2019-04-30T05:24:26.491Z,95595.84
2019-04-30T05:25:29.960Z,95599.94
2019-04-30T05:26:33.390Z,95598.95
2019-04-30T05:27:36.823Z,95603.95
2019-04-30T05:28:40.352Z,95603.67
2019-04-30T05:29:43.857Z,95607.23
2019-04-30T05:30:49.222Z,95602.64
2019-04-30T05:31:52.544Z,95601.74
2019-04-30T05:32:55.987Z,95598.23
2019-04-30T05:33:59.437Z,95600.25
2019-04-30T05:35:02.948Z,95607.45
2019-04-30T05:36:06.472Z,95611.42
2019-04-30T05:37:09.984Z,95607.78
2019-04-30T05:38:13.419Z,95605.16
2019-04-30T05:39:18.800Z,95610.80
2019-04-30T05:40:22.082Z,95604.67
2019-04-30T05:41:25.537Z,95605.38
2019-04-30T05:42:28.989Z,95611.42
2019-04-30T05:43:32.473Z,95610.52
2019-04-30T05:44:35.908Z,95612.44
2019-04-30T05:45:39.342Z,95619.30
2019-04-30T05:46:42.818Z,95616.77
2019-04-30T05:47:46.322Z,95617.31
2019-04-30T05:48:49.905Z,95626.05
2019-04-30T05:49:53.345Z,95618.22
2019-04-30T05:50:58.957Z,95619.38
2019-04-30T05:52:02.098Z,95620.61
2019-04-30T05:53:05.593Z,95625.30
2019-04-30T05:54:09.192Z,95618.30
2019-04-30T05:55:12.979Z,95621.46
2019-04-30T05:56:16.427Z,95616.50
2019-04-30T05:57:19.869Z,95617.09
2019-04-30T05:58:23.306Z,95620.06
2019-04-30T05:59:28.806Z,95614.30
2019-04-30T06:00:32.203Z,95617.50
2019-04-30T06:01:35.771Z,95623.08
2019-04-30T06:02:40.039Z,95621.99
2019-04-30T06:03:43.563Z,95621.19
2019-04-30T06:04:48.849Z,95621.38
2019-04-30T06:05:52.236Z,95623.80
2019-04-30T06:06:55.769Z,95620.97
2019-04-30T06:07:59.437Z,95625.57
2019-04-30T06:09:06.635Z,95621.66
2019-04-30T06:10:20.506Z,95629.02
2019-04-30T06:11:42.122Z,95627.72
2019-04-30T06:12:49.721Z,95633.89
2019-04-30T06:13:58.851Z,95633.53
2019-04-30T06:15:20.429Z,95628.75
2019-04-30T06:16:25.669Z,95634.71
2019-04-30T06:17:30.900Z,95634.03
2019-04-30T06:18:34.544Z,95630.66
2019-04-30T06:19:39.157Z,95632.94
2019-04-30T06:20:42.710Z,95633.13
2019-04-30T06:21:46.321Z,95634.44
2019-04-30T06:22:52.377Z,95633.53
2019-04-30T06:23:55.908Z,95631.83
2019-04-30T06:24:59.597Z,95631.41
2019-04-30T06:26:09.713Z,95634.25
2019-04-30T06:27:10.550Z,95639.38
2019-04-30T06:28:13.894Z,95634.75
2019-04-30T06:29:18.970Z,95638.70
2019-04-30T06:30:23.939Z,95637.94
2019-04-30T06:31:34.697Z,95640.33
2019-04-30T06:32:32.846Z,95637.73
2019-04-30T06:33:36.523Z,95644.48
2019-04-30T06:34:41.896Z,95647.98
2019-04-30T06:35:46.638Z,95647.50
2019-04-30T06:36:51.817Z,95646.95
2019-04-30T06:37:55.725Z,95647.23
2019-04-30T06:38:59.315Z,95643.03
2019-04-30T06:40:02.894Z,95648.72
2019-04-30T06:41:06.463Z,95645.42
2019-04-30T06:42:12.831Z,95646.18
2019-04-30T06:43:15.462Z,95646.91
2019-04-30T06:44:19.542Z,95654.02
2019-04-30T06:45:23.130Z,95651.59
2019-04-30T06:46:28.527Z,95652.14
2019-04-30T06:47:33.440Z,95649.66
2019-04-30T06:48:39.248Z,95652.75
2019-04-30T06:49:42.994Z,95653.98
2019-04-30T06:50:46.560Z,95657.70
2019-04-30T06:51:50.002Z,95652.98
2019-04-30T06:52:58.381Z,95651.96
2019-04-30T06:53:58.738Z,95656.36
2019-04-30T06:55:02.133Z,95652.49
2019-04-30T06:56:05.569Z,95661.50
2019-04-30T06:57:11.799Z,95653.66
2019-04-30T06:58:15.544Z,95659.65
2019-04-30T06:59:20.350Z,95658.08
2019-04-30T07:00:40.530Z,95662.19
2019-04-30T07:01:44.064Z,95658.89
2019-04-30T07:02:49.277Z,95659.42
2019-04-30T07:03:52.855Z,95662.27
2019-04-30T07:04:56.302Z,95658.34
2019-04-30T07:05:59.814Z,95657.30
2019-04-30T07:07:03.256Z,95657.53
2019-04-30T07:08:36.134Z,95664.33
2019-04-30T07:09:36.380Z,95661.41
2019-04-30T07:10:37.455Z,95659.91
2019-04-30T07:11:42.630Z,95661.81
2019-04-30T07:12:50.762Z,95662.03
2019-04-30T07:13:54.397Z,95657.89
2019-04-30T07:14:59.197Z,95660.91
2019-04-30T07:16:02.706Z,95660.18
2019-04-30T07:17:06.148Z,95657.09
2019-04-30T07:18:09.604Z,95661.48
2019-04-30T07:19:13.314Z,95658.16
2019-04-30T07:20:18.969Z,95652.94
2019-04-30T07:21:21.961Z,95652.94
2019-04-30T07:22:37.664Z,95650.46
2019-04-30T07:23:30.640Z,95647.80
2019-04-30T07:24:34.225Z,95652.58
2019-04-30T07:25:39.126Z,95653.38
2019-04-30T07:26:42.655Z,95652.08
2019-04-30T07:27:46.181Z,95654.73
2019-04-30T07:28:54.716Z,95654.95
2019-04-30T07:29:54.946Z,95655.50
2019-04-30T07:31:10.628Z,95660.02
2019-04-30T07:32:03.689Z,95654.50
2019-04-30T07:33:09.377Z,95656.03
2019-04-30T07:34:12.437Z,95651.13
2019-04-30T07:35:16.020Z,95655.22
2019-04-30T07:36:19.705Z,95655.45
2019-04-30T07:37:24.752Z,95663.38
2019-04-30T07:38:29.534Z,95660.99
2019-04-30T07:39:33.530Z,95665.23
2019-04-30T07:40:38.943Z,95658.52
2019-04-30T07:41:42.533Z,95657.75
2019-04-30T07:42:45.973Z,95665.73
2019-04-30T07:43:49.580Z,95660.41
2019-04-30T07:44:53.577Z,95655.78
2019-04-30T07:45:59.690Z,95652.67
2019-04-30T07:47:02.230Z,95655.41
2019-04-30T07:48:05.767Z,95655.05
2019-04-30T07:49:10.036Z,95662.97
2019-04-30T07:50:14.411Z,95657.73
2019-04-30T07:51:21.115Z,95661.25
2019-04-30T07:52:23.959Z,95664.01
2019-04-30T07:53:28.094Z,95666.08
2019-04-30T07:54:31.553Z,95667.79
2019-04-30T07:55:34.989Z,95672.70
2019-04-30T07:56:41.543Z,95671.61
2019-04-30T07:57:43.661Z,95674.92
2019-04-30T07:58:47.204Z,95668.59
2019-04-30T07:59:50.639Z,95679.45
2019-04-30T08:00:56.182Z,95675.06
2019-04-30T08:02:07.606Z,95680.00
2019-04-30T08:03:07.022Z,95683.06
2019-04-30T08:04:29.100Z,95680.95
2019-04-30T08:05:33.622Z,95688.11
2019-04-30T08:06:37.107Z,95685.05
2019-04-30T08:07:40.709Z,95683.53
2019-04-30T08:08:44.137Z,95675.82
2019-04-30T08:09:49.313Z,95683.88
2019-04-30T08:10:52.971Z,95684.83
2019-04-30T08:11:56.489Z,95683.57
2019-04-30T08:13:08.558Z,95683.57
2019-04-30T08:14:06.318Z,95686.62
2019-04-30T08:15:10.159Z,95689.14
2019-04-30T08:16:13.670Z,95681.95
2019-04-30T08:17:18.874Z,95687.78
2019-04-30T08:18:22.488Z,95690.70
2019-04-30T08:19:26.016Z,95692.68
2019-04-30T08:20:29.652Z,95693.27
2019-04-30T08:21:33.059Z,95692.75
2019-04-30T08:22:36.629Z,95688.09
2019-04-30T08:23:40.137Z,95692.91
2019-04-30T08:24:43.594Z,95693.16
2019-04-30T08:25:48.874Z,95698.78
2019-04-30T08:26:52.492Z,95690.53
2019-04-30T08:27:55.994Z,95693.60
2019-04-30T08:28:59.888Z,95694.05
2019-04-30T08:30:03.673Z,95700.71
2019-04-30T08:31:08.977Z,95694.13
2019-04-30T08:32:12.718Z,95695.58
2019-04-30T08:33:16.210Z,95701.42
2019-04-30T08:34:20.090Z,95698.95
2019-04-30T08:35:23.740Z,95698.72
2019-04-30T08:36:27.272Z,95703.80
2019-04-30T08:37:30.698Z,95702.83
2019-04-30T08:38:34.153Z,95698.09
2019-04-30T08:39:39.601Z,95698.72
2019-04-30T08:40:53.353Z,95696.22
2019-04-30T08:41:49.313Z,95695.16
2019-04-30T08:42:52.758Z,95703.55
2019-04-30T08:43:56.193Z,95701.02
2019-04-30T08:44:59.637Z,95699.78
2019-04-30T08:46:03.143Z,95700.59
2019-04-30T08:47:08.576Z,95698.95
2019-04-30T08:48:11.958Z,95702.87
2019-04-30T08:49:15.847Z,95700.38
2019-04-30T08:50:20.648Z,95703.05
2019-04-30T08:51:24.444Z,95704.88
2019-04-30T08:52:27.947Z,95707.08
2019-04-30T08:53:33.802Z,95708.82
2019-04-30T08:54:36.603Z,95712.86
2019-04-30T08:55:40.111Z,95707.08
2019-04-30T08:56:43.641Z,95703.73
2019-04-30T08:57:47.143Z,95709.36
2019-04-30T08:58:50.637Z,95706.28
2019-04-30T08:59:54.074Z,95708.53
2019-04-30T09:00:58.782Z,95710.79
2019-04-30T09:02:12.852Z,95706.94
2019-04-30T09:03:09.369Z,95706.87
2019-04-30T09:04:12.963Z,95715.73
2019-04-30T09:05:18.574Z,95713.12
2019-04-30T09:06:23.552Z,95718.94
2019-04-30T09:07:27.083Z,95711.56
2019-04-30T09:08:30.616Z,95718.66
2019-04-30T09:09:34.119Z,95720.18
2019-04-30T09:10:39.326Z,95721.62
2019-04-30T09:11:51.704Z,95716.58
2019-04-30T09:12:51.678Z,95722.33
2019-04-30T09:13:53.302Z,95717.56
2019-04-30T09:14:56.757Z,95716.30
2019-04-30T09:16:00.256Z,95718.95
2019-04-30T09:17:03.842Z,95718.27
2019-04-30T09:18:12.465Z,95721.39
2019-04-30T09:19:12.653Z,95714.14
2019-04-30T09:20:16.152Z,95711.72
2019-04-30T09:21:19.586Z,95721.81
2019-04-30T09:22:23.108Z,95716.58
2019-04-30T09:23:34.319Z,95713.83
2019-04-30T09:24:31.777Z,95720.03
2019-04-30T09:25:35.208Z,95713.94
2019-04-30T09:26:39.228Z,95716.77
2019-04-30T09:27:42.805Z,95710.02
2019-04-30T09:28:46.231Z,95712.48
2019-04-30T09:29:49.673Z,95711.54
2019-04-30T09:30:53.248Z,95712.89
2019-04-30T09:31:56.713Z,95709.73
2019-04-30T09:33:00.148Z,95713.91
2019-04-30T09:34:14.345Z,95718.88
2019-04-30T09:35:09.623Z,95709.91
2019-04-30T09:36:13.071Z,95715.95
2019-04-30T09:37:18.516Z,95719.54
2019-04-30T09:38:21.739Z,95716.16
2019-04-30T09:39:25.263Z,95713.33
2019-04-30T09:40:32.201Z,95716.34
2019-04-30T09:41:34.027Z,95717.18
2019-04-30T09:42:39.063Z,95719.98
2019-04-30T09:43:42.529Z,95717.37
2019-04-30T09:44:46.030Z,95718.16
2019-04-30T09:45:49.790Z,95718.38
2019-04-30T09:46:53.445Z,95712.67
2019-04-30T09:47:56.877Z,95720.20
2019-04-30T09:49:01.042Z,95713.95
2019-04-30T09:50:05.613Z,95721.25
2019-04-30T09:51:10.798Z,95715.00
2019-04-30T09:52:14.346Z,95711.18
2019-04-30T09:53:19.575Z,95715.30
2019-04-30T09:54:23.437Z,95717.11
2019-04-30T09:55:28.927Z,95715.91
2019-04-30T09:56:32.219Z,95711.37
2019-04-30T09:57:35.652Z,95716.45
2019-04-30T09:58:39.390Z,95716.45
2019-04-30T09:59:42.888Z,95713.55
2019-04-30T10:00:46.393Z,95714.64
2019-04-30T10:01:49.968Z,95714.64
2019-04-30T10:02:53.469Z,95717.72
2019-04-30T10:03:59.374Z,95715.61
2019-04-30T10:05:02.866Z,95712.63
2019-04-30T10:06:06.681Z,95715.65
2019-04-30T10:07:10.258Z,95719.46
2019-04-30T10:08:13.834Z,95715.39
2019-04-30T10:09:19.288Z,95715.39
2019-04-30T10:10:24.514Z,95721.63
2019-04-30T10:11:38.476Z,95721.63
2019-04-30T10:12:41.938Z,95721.59
2019-04-30T10:13:45.440Z,95723.19
2019-04-30T10:14:49.642Z,95725.53
2019-04-30T10:15:58.547Z,95722.18
2019-04-30T10:17:09.664Z,95723.95
2019-04-30T10:18:13.052Z,95717.53
2019-04-30T10:19:16.627Z,95717.53
2019-04-30T10:20:23.118Z,95720.06
2019-04-30T10:21:26.709Z,95717.08
2019-04-30T10:22:30.170Z,95724.87
2019-04-30T10:23:33.619Z,95720.67
2019-04-30T10:24:37.055Z,95720.67
2019-04-30T10:25:40.657Z,95718.36
2019-04-30T10:26:44.254Z,95721.80
2019-04-30T10:27:49.731Z,95724.36
2019-04-30T10:28:54.036Z,95721.06
2019-04-30T10:29:59.354Z,95719.79
2019-04-30T10:31:03.021Z,95713.94
2019-04-30T10:32:08.711Z,95712.08
2019-04-30T10:33:11.904Z,95713.12
2019-04-30T10:34:15.484Z,95709.16
2019-04-30T10:35:20.362Z,95707.53
2019-04-30T10:36:23.950Z,95707.72
2019-04-30T10:37:28.752Z,95707.72
2019-04-30T10:38:32.459Z,95710.50
2019-04-30T10:39:36.032Z,95711.86
2019-04-30T10:40:39.497Z,95712.56
2019-04-30T10:41:43.009Z,95715.15
2019-04-30T10:42:46.445Z,95712.00
2019-04-30T10:43:50.025Z,95714.34
2019-04-30T10:44:53.599Z,95708.63
2019-04-30T10:45:58.592Z,95713.03
2019-04-30T10:47:02.189Z,95712.42
2019-04-30T10:48:05.800Z,95710.59
2019-04-30T10:49:09.332Z,95707.18
2019-04-30T10:50:13.108Z,95709.63
2019-04-30T10:51:16.537Z,95710.75
2019-04-30T10:52:20.080Z,95705.64
2019-04-30T10:53:23.582Z,95704.30
2019-04-30T10:54:28.920Z,95706.27
2019-04-30T10:55:32.252Z,95705.48
2019-04-30T10:56:35.885Z,95705.61
2019-04-30T10:57:39.820Z,95705.61
2019-04-30T10:58:43.268Z,95700.55
2019-04-30T10:59:48.613Z,95696.93
2019-04-30T11:00:51.959Z,95692.60
2019-04-30T11:01:55.461Z,95694.70
2019-04-30T11:02:59.353Z,95695.06
2019-04-30T11:04:02.949Z,95691.45
2019-04-30T11:05:08.086Z,95691.45
2019-04-30T11:06:11.723Z,95700.55
2019-04-30T11:07:15.249Z,95698.61
2019-04-30T11:08:18.706Z,95695.23
2019-04-30T11:09:22.277Z,95695.92
2019-04-30T11:10:25.856Z,95696.73
2019-04-30T11:11:30.651Z,95680.03
2019-04-30T11:12:34.170Z,95691.85
2019-04-30T11:13:37.616Z,95691.75
2019-04-30T11:14:41.132Z,95690.08
2019-04-30T11:15:45.535Z,95692.05
2019-04-30T11:16:51.201Z,95693.36
2019-04-30T11:17:54.504Z,95689.48
2019-04-30T11:18:59.199Z,95689.16
2019-04-30T11:20:03.347Z,95684.51
2019-04-30T11:21:07.782Z,95687.30
2019-04-30T11:22:12.582Z,95692.83
2019-04-30T11:23:16.388Z,95686.27
2019-04-30T11:24:20.076Z,95685.97
2019-04-30T11:25:24.259Z,95671.97
2019-04-30T11:26:31.148Z,95682.41
2019-04-30T11:27:33.978Z,95682.17
2019-04-30T11:28:37.884Z,95682.22
2019-04-30T11:29:41.740Z,95681.13
2019-04-30T11:30:45.814Z,95664.02
2019-04-30T11:31:51.381Z,95673.22
2019-04-30T11:32:55.287Z,95673.80
2019-04-30T11:34:00.490Z,95667.95
2019-04-30T11:35:05.094Z,95670.59
2019-04-30T11:36:09.644Z,95657.97
2019-04-30T11:37:13.402Z,95664.37
2019-04-30T11:38:20.363Z,95661.71
2019-04-30T11:39:22.110Z,95663.55
2019-04-30T11:40:36.647Z,95660.02
2019-04-30T11:41:36.637Z,95664.37
2019-04-30T11:42:40.129Z,95673.02
2019-04-30T11:43:43.584Z,95661.01
2019-04-30T11:44:48.731Z,95660.66
2019-04-30T11:45:55.383Z,95667.58
2019-04-30T11:47:10.511Z,95668.72
2019-04-30T11:48:14.041Z,95669.30
2019-04-30T11:49:17.521Z,95666.47
2019-04-30T11:50:21.038Z,95665.91
2019-04-30T11:51:26.911Z,95668.55
2019-04-30T11:52:29.854Z,95669.52
2019-04-30T11:53:33.438Z,95664.49
2019-04-30T11:54:48.682Z,95665.98
2019-04-30T11:55:42.198Z,95664.48
2019-04-30T11:56:45.642Z,95664.66
2019-04-30T11:57:49.541Z,95667.67
2019-04-30T11:58:53.077Z,95662.92
2019-04-30T11:59:56.610Z,95661.62
2019-04-30T12:01:00.265Z,95662.19
2019-04-30T12:02:05.411Z,95663.17
2019-04-30T12:03:09.114Z,95665.43
2019-04-30T12:04:12.581Z,95663.74
2019-04-30T12:05:16.796Z,95669.96
2019-04-30T12:06:20.305Z,95660.16
2019-04-30T12:07:34.298Z,95662.97
2019-04-30T12:08:45.002Z,95665.38
2019-04-30T12:10:05.032Z,95659.13
2019-04-30T12:11:15.330Z,95656.95
2019-04-30T12:12:18.924Z,95660.23
2019-04-30T12:13:27.199Z,95655.87
2019-04-30T12:14:30.642Z,95656.34
2019-04-30T12:15:34.483Z,95662.02
2019-04-30T12:16:39.600Z,95661.95
2019-04-30T12:17:43.147Z,95662.67
2019-04-30T12:18:46.595Z,95666.70
2019-04-30T12:19:50.125Z,95662.47
2019-04-30T12:20:53.738Z,95662.58
2019-04-30T12:21:57.176Z,95662.20
2019-04-30T12:23:00.699Z,95664.28
2019-04-30T12:24:04.210Z,95667.50
2019-04-30T12:25:09.875Z,95666.79
2019-04-30T12:26:13.065Z,95658.52
2019-04-30T12:27:18.412Z,95662.86
2019-04-30T12:28:21.810Z,95663.13
2019-04-30T12:29:25.254Z,95660.47
2019-04-30T12:30:29.094Z,95662.81
2019-04-30T12:31:32.580Z,95660.21
2019-04-30T12:32:36.129Z,95653.52
2019-04-30T12:33:39.536Z,95656.98
2019-04-30T12:34:42.984Z,95663.23
2019-04-30T12:35:46.594Z,95656.56
2019-04-30T12:36:50.103Z,95664.09
2019-04-30T12:37:53.572Z,95655.39
2019-04-30T12:38:57.083Z,95650.92
2019-04-30T12:40:00.534Z,95651.69